sensor_id;sensor_type;location;lat;lon;timestamp;temperature;humidity
80931;DHT22;70388;42.698;23.324;2023-10-19T00:00:34;9.00;79.90
80931;DHT22;70388;42.698;23.324;2023-10-19T00:03:02;8.80;81.20
80931;DHT22;70388;42.698;23.324;2023-10-19T00:05:32;8.80;81.30
80931;DHT22;70388;42.698;23.324;2023-10-19T00:07:59;9.00;80.70
80931;DHT22;70388;42.698;23.324;2023-10-19T00:10:26;9.10;80.00
80931;DHT22;70388;42.698;23.324;2023-10-19T00:12:58;9.00;80.00
80931;DHT22;70388;42.698;23.324;2023-10-19T00:15:35;8.90;80.60
80931;DHT22;70388;42.698;23.324;2023-10-19T00:18:05;8.90;80.50
80931;DHT22;70388;42.698;23.324;2023-10-19T00:20:53;9.10;79.80
80931;DHT22;70388;42.698;23.324;2023-10-19T00:23:25;9.10;79.40
80931;DHT22;70388;42.698;23.324;2023-10-19T00:26:02;9.20;79.10
80931;DHT22;70388;42.698;23.324;2023-10-19T00:28:36;9.20;78.80
80931;DHT22;70388;42.698;23.324;2023-10-19T00:31:04;8.90;80.10
80931;DHT22;70388;42.698;23.324;2023-10-19T00:33:37;8.70;81.10
80931;DHT22;70388;42.698;23.324;2023-10-19T00:36:09;8.60;81.80
80931;DHT22;70388;42.698;23.324;2023-10-19T00:38:39;8.70;81.80
80931;DHT22;70388;42.698;23.324;2023-10-19T00:41:26;8.70;81.80
80931;DHT22;70388;42.698;23.324;2023-10-19T00:43:56;8.70;81.80
80931;DHT22;70388;42.698;23.324;2023-10-19T00:46:31;8.60;81.90
80931;DHT22;70388;42.698;23.324;2023-10-19T00:49:17;8.50;82.40
80931;DHT22;70388;42.698;23.324;2023-10-19T00:51:50;8.50;82.70
80931;DHT22;70388;42.698;23.324;2023-10-19T00:54:17;8.70;81.80
80931;DHT22;70388;42.698;23.324;2023-10-19T00:56:51;8.90;81.00
80931;DHT22;70388;42.698;23.324;2023-10-19T00:59:19;9.00;80.10
80931;DHT22;70388;42.698;23.324;2023-10-19T01:01:55;9.20;79.50
80931;DHT22;70388;42.698;23.324;2023-10-19T01:04:45;9.30;78.70
80931;DHT22;70388;42.698;23.324;2023-10-19T01:07:17;9.30;78.60
80931;DHT22;70388;42.698;23.324;2023-10-19T01:10:03;9.30;78.50
80931;DHT22;70388;42.698;23.324;2023-10-19T01:12:31;9.30;78.30
80931;DHT22;70388;42.698;23.324;2023-10-19T01:15:14;9.30;78.20
80931;DHT22;70388;42.698;23.324;2023-10-19T01:17:44;9.40;78.10
80931;DHT22;70388;42.698;23.324;2023-10-19T01:20:14;9.40;77.60
80931;DHT22;70388;42.698;23.324;2023-10-19T01:23:07;9.40;77.60
80931;DHT22;70388;42.698;23.324;2023-10-19T01:28:21;9.30;78.50
80931;DHT22;70388;42.698;23.324;2023-10-19T01:30:51;9.00;79.60
80931;DHT22;70388;42.698;23.324;2023-10-19T01:33:17;8.90;79.90
80931;DHT22;70388;42.698;23.324;2023-10-19T01:35:47;8.90;80.30
80931;DHT22;70388;42.698;23.324;2023-10-19T01:38:31;9.00;79.80
80931;DHT22;70388;42.698;23.324;2023-10-19T01:40:58;9.20;79.20
80931;DHT22;70388;42.698;23.324;2023-10-19T01:43:27;9.20;79.00
80931;DHT22;70388;42.698;23.324;2023-10-19T01:46:00;9.20;78.90
80931;DHT22;70388;42.698;23.324;2023-10-19T01:48:31;9.20;78.90
80931;DHT22;70388;42.698;23.324;2023-10-19T01:51:01;9.20;78.80
80931;DHT22;70388;42.698;23.324;2023-10-19T01:53:29;9.30;78.60
80931;DHT22;70388;42.698;23.324;2023-10-19T01:55:55;9.40;78.40
80931;DHT22;70388;42.698;23.324;2023-10-19T01:58:27;9.40;78.00
80931;DHT22;70388;42.698;23.324;2023-10-19T02:00:55;9.50;77.80
80931;DHT22;70388;42.698;23.324;2023-10-19T02:03:26;9.50;77.80
80931;DHT22;70388;42.698;23.324;2023-10-19T02:06:01;9.40;77.80
80931;DHT22;70388;42.698;23.324;2023-10-19T02:08:36;9.50;78.10
80931;DHT22;70388;42.698;23.324;2023-10-19T02:11:08;9.50;77.80
80931;DHT22;70388;42.698;23.324;2023-10-19T02:13:42;9.50;77.70
80931;DHT22;70388;42.698;23.324;2023-10-19T02:16:10;9.50;77.80
80931;DHT22;70388;42.698;23.324;2023-10-19T02:18:36;9.50;78.70
80931;DHT22;70388;42.698;23.324;2023-10-19T02:21:03;9.50;77.80
80931;DHT22;70388;42.698;23.324;2023-10-19T02:23:32;9.40;78.00
80931;DHT22;70388;42.698;23.324;2023-10-19T02:26:01;9.50;78.00
80931;DHT22;70388;42.698;23.324;2023-10-19T02:28:29;9.40;77.90
80931;DHT22;70388;42.698;23.324;2023-10-19T02:30:58;9.30;78.10
80931;DHT22;70388;42.698;23.324;2023-10-19T02:33:36;9.30;78.50
80931;DHT22;70388;42.698;23.324;2023-10-19T02:36:01;9.30;78.70
80931;DHT22;70388;42.698;23.324;2023-10-19T02:38:29;9.20;78.80
80931;DHT22;70388;42.698;23.324;2023-10-19T02:40:55;9.20;79.10
80931;DHT22;70388;42.698;23.324;2023-10-19T02:43:21;9.20;79.10
80931;DHT22;70388;42.698;23.324;2023-10-19T02:45:49;9.20;79.10
80931;DHT22;70388;42.698;23.324;2023-10-19T02:48:16;9.10;79.80
80931;DHT22;70388;42.698;23.324;2023-10-19T02:50:42;9.10;79.80
80931;DHT22;70388;42.698;23.324;2023-10-19T02:53:08;9.10;79.70
80931;DHT22;70388;42.698;23.324;2023-10-19T02:55:38;9.10;79.30
80931;DHT22;70388;42.698;23.324;2023-10-19T02:58:06;9.10;79.20
80931;DHT22;70388;42.698;23.324;2023-10-19T03:00:31;9.10;79.10
80931;DHT22;70388;42.698;23.324;2023-10-19T03:03:00;9.10;79.10
80931;DHT22;70388;42.698;23.324;2023-10-19T03:05:26;9.00;78.80
80931;DHT22;70388;42.698;23.324;2023-10-19T03:07:52;9.00;79.40
80931;DHT22;70388;42.698;23.324;2023-10-19T03:10:18;9.00;79.70
80931;DHT22;70388;42.698;23.324;2023-10-19T03:13:00;9.00;79.60
80931;DHT22;70388;42.698;23.324;2023-10-19T03:15:27;9.00;79.30
80931;DHT22;70388;42.698;23.324;2023-10-19T03:17:56;9.10;79.00
80931;DHT22;70388;42.698;23.324;2023-10-19T03:20:21;9.10;78.80
80931;DHT22;70388;42.698;23.324;2023-10-19T03:22:50;9.10;78.20
80931;DHT22;70388;42.698;23.324;2023-10-19T03:25:16;9.10;77.90
80931;DHT22;70388;42.698;23.324;2023-10-19T03:28:00;9.00;78.10
80931;DHT22;70388;42.698;23.324;2023-10-19T03:30:37;9.00;78.30
80931;DHT22;70388;42.698;23.324;2023-10-19T03:33:06;9.00;78.50
80931;DHT22;70388;42.698;23.324;2023-10-19T03:35:39;8.80;79.00
80931;DHT22;70388;42.698;23.324;2023-10-19T03:38:08;8.70;79.40
80931;DHT22;70388;42.698;23.324;2023-10-19T03:40:41;8.70;79.90
80931;DHT22;70388;42.698;23.324;2023-10-19T03:43:07;8.60;80.20
80931;DHT22;70388;42.698;23.324;2023-10-19T03:45:44;8.70;80.10
80931;DHT22;70388;42.698;23.324;2023-10-19T03:48:20;8.80;79.70
80931;DHT22;70388;42.698;23.324;2023-10-19T03:50:53;8.70;79.70
80931;DHT22;70388;42.698;23.324;2023-10-19T03:53:22;8.60;80.20
80931;DHT22;70388;42.698;23.324;2023-10-19T03:55:49;8.60;80.70
80931;DHT22;70388;42.698;23.324;2023-10-19T03:58:18;8.60;81.70
80931;DHT22;70388;42.698;23.324;2023-10-19T04:00:47;8.60;80.80
80931;DHT22;70388;42.698;23.324;2023-10-19T04:03:15;8.60;80.80
80931;DHT22;70388;42.698;23.324;2023-10-19T04:05:43;8.70;80.60
80931;DHT22;70388;42.698;23.324;2023-10-19T04:08:12;8.70;80.20
80931;DHT22;70388;42.698;23.324;2023-10-19T04:10:40;8.70;80.00
80931;DHT22;70388;42.698;23.324;2023-10-19T04:13:11;8.80;80.00
80931;DHT22;70388;42.698;23.324;2023-10-19T04:15:36;8.80;79.70
80931;DHT22;70388;42.698;23.324;2023-10-19T04:18:03;8.80;79.50
80931;DHT22;70388;42.698;23.324;2023-10-19T04:20:35;8.80;79.20
80931;DHT22;70388;42.698;23.324;2023-10-19T04:23:08;8.70;79.20
80931;DHT22;70388;42.698;23.324;2023-10-19T04:25:36;8.50;79.50
80931;DHT22;70388;42.698;23.324;2023-10-19T04:28:02;8.50;79.90
80931;DHT22;70388;42.698;23.324;2023-10-19T04:30:28;8.40;80.20
80931;DHT22;70388;42.698;23.324;2023-10-19T04:32:55;8.30;80.60
80931;DHT22;70388;42.698;23.324;2023-10-19T04:35:22;8.40;80.40
80931;DHT22;70388;42.698;23.324;2023-10-19T04:37:52;8.30;80.50
80931;DHT22;70388;42.698;23.324;2023-10-19T04:40:22;8.30;80.70
80931;DHT22;70388;42.698;23.324;2023-10-19T04:42:52;8.30;80.60
80931;DHT22;70388;42.698;23.324;2023-10-19T04:45:18;8.20;81.10
80931;DHT22;70388;42.698;23.324;2023-10-19T04:47:44;8.10;81.50
80931;DHT22;70388;42.698;23.324;2023-10-19T04:50:10;8.10;81.50
80931;DHT22;70388;42.698;23.324;2023-10-19T04:52:36;8.10;81.60
80931;DHT22;70388;42.698;23.324;2023-10-19T04:55:02;8.00;82.00
80931;DHT22;70388;42.698;23.324;2023-10-19T04:57:28;8.00;82.30
80931;DHT22;70388;42.698;23.324;2023-10-19T04:59:54;8.10;82.10
80931;DHT22;70388;42.698;23.324;2023-10-19T05:02:20;8.20;81.30
80931;DHT22;70388;42.698;23.324;2023-10-19T05:04:46;8.20;81.40
80931;DHT22;70388;42.698;23.324;2023-10-19T05:07:12;8.20;81.00
80931;DHT22;70388;42.698;23.324;2023-10-19T05:09:45;8.20;81.10
80931;DHT22;70388;42.698;23.324;2023-10-19T05:12:12;8.20;81.60
80931;DHT22;70388;42.698;23.324;2023-10-19T05:14:40;8.20;81.60
80931;DHT22;70388;42.698;23.324;2023-10-19T05:17:07;8.10;81.60
80931;DHT22;70388;42.698;23.324;2023-10-19T05:19:39;8.20;81.80
80931;DHT22;70388;42.698;23.324;2023-10-19T05:22:06;8.10;82.80
80931;DHT22;70388;42.698;23.324;2023-10-19T05:24:32;8.30;81.90
80931;DHT22;70388;42.698;23.324;2023-10-19T05:26:58;8.40;81.60
80931;DHT22;70388;42.698;23.324;2023-10-19T05:29:24;8.50;80.70
80931;DHT22;70388;42.698;23.324;2023-10-19T05:31:51;8.70;80.00
80931;DHT22;70388;42.698;23.324;2023-10-19T05:34:20;8.80;80.10
80931;DHT22;70388;42.698;23.324;2023-10-19T05:36:46;8.90;79.40
80931;DHT22;70388;42.698;23.324;2023-10-19T05:39:15;9.00;79.00
80931;DHT22;70388;42.698;23.324;2023-10-19T05:41:41;9.00;79.30
80931;DHT22;70388;42.698;23.324;2023-10-19T05:44:07;9.10;79.30
80931;DHT22;70388;42.698;23.324;2023-10-19T05:46:32;9.30;78.50
80931;DHT22;70388;42.698;23.324;2023-10-19T05:48:58;9.30;77.80
80931;DHT22;70388;42.698;23.324;2023-10-19T05:51:24;9.40;77.10
80931;DHT22;70388;42.698;23.324;2023-10-19T05:53:50;9.50;76.70
80931;DHT22;70388;42.698;23.324;2023-10-19T05:56:16;9.40;76.90
80931;DHT22;70388;42.698;23.324;2023-10-19T05:58:43;9.50;76.90
80931;DHT22;70388;42.698;23.324;2023-10-19T06:01:10;9.70;75.70
80931;DHT22;70388;42.698;23.324;2023-10-19T06:03:35;9.80;75.30
80931;DHT22;70388;42.698;23.324;2023-10-19T06:06:01;9.80;75.10
80931;DHT22;70388;42.698;23.324;2023-10-19T06:08:27;9.90;75.00
80931;DHT22;70388;42.698;23.324;2023-10-19T06:10:55;10.00;74.50
80931;DHT22;70388;42.698;23.324;2023-10-19T06:13:21;10.20;73.40
80931;DHT22;70388;42.698;23.324;2023-10-19T06:15:50;10.40;72.70
80931;DHT22;70388;42.698;23.324;2023-10-19T06:18:17;10.50;71.80
80931;DHT22;70388;42.698;23.324;2023-10-19T06:20:46;10.60;71.50
80931;DHT22;70388;42.698;23.324;2023-10-19T06:23:12;10.70;71.30
80931;DHT22;70388;42.698;23.324;2023-10-19T06:25:38;10.70;71.00
80931;DHT22;70388;42.698;23.324;2023-10-19T06:28:05;10.80;70.90
80931;DHT22;70388;42.698;23.324;2023-10-19T06:30:31;10.90;70.50
80931;DHT22;70388;42.698;23.324;2023-10-19T06:32:58;11.00;70.10
80931;DHT22;70388;42.698;23.324;2023-10-19T06:35:29;11.10;69.70
80931;DHT22;70388;42.698;23.324;2023-10-19T06:37:57;11.20;69.30
80931;DHT22;70388;42.698;23.324;2023-10-19T06:40:23;11.20;68.70
80931;DHT22;70388;42.698;23.324;2023-10-19T06:42:49;11.40;68.70
80931;DHT22;70388;42.698;23.324;2023-10-19T06:45:16;11.50;68.40
80931;DHT22;70388;42.698;23.324;2023-10-19T06:47:45;11.60;67.60
80931;DHT22;70388;42.698;23.324;2023-10-19T06:50:16;11.80;66.60
80931;DHT22;70388;42.698;23.324;2023-10-19T06:52:43;11.90;66.00
80931;DHT22;70388;42.698;23.324;2023-10-19T06:55:10;12.00;66.20
80931;DHT22;70388;42.698;23.324;2023-10-19T06:57:43;12.20;65.70
80931;DHT22;70388;42.698;23.324;2023-10-19T07:00:14;12.50;64.60
80931;DHT22;70388;42.698;23.324;2023-10-19T07:02:43;12.70;63.90
80931;DHT22;70388;42.698;23.324;2023-10-19T07:05:10;12.90;62.90
80931;DHT22;70388;42.698;23.324;2023-10-19T07:07:41;13.10;62.30
80931;DHT22;70388;42.698;23.324;2023-10-19T07:10:08;13.20;61.70
80931;DHT22;70388;42.698;23.324;2023-10-19T07:12:36;13.30;61.10
80931;DHT22;70388;42.698;23.324;2023-10-19T07:15:04;13.20;61.40
80931;DHT22;70388;42.698;23.324;2023-10-19T07:17:36;13.20;60.80
80931;DHT22;70388;42.698;23.324;2023-10-19T07:20:07;13.40;60.00
80931;DHT22;70388;42.698;23.324;2023-10-19T07:22:35;13.50;59.40
80931;DHT22;70388;42.698;23.324;2023-10-19T07:25:05;13.60;58.90
80931;DHT22;70388;42.698;23.324;2023-10-19T07:27:32;13.60;59.10
80931;DHT22;70388;42.698;23.324;2023-10-19T07:29:59;13.70;58.50
80931;DHT22;70388;42.698;23.324;2023-10-19T07:32:25;13.90;58.20
80931;DHT22;70388;42.698;23.324;2023-10-19T07:34:51;14.10;57.60
80931;DHT22;70388;42.698;23.324;2023-10-19T07:37:17;14.30;57.20
80931;DHT22;70388;42.698;23.324;2023-10-19T07:39:46;14.20;57.10
80931;DHT22;70388;42.698;23.324;2023-10-19T07:42:12;14.00;57.50
80931;DHT22;70388;42.698;23.324;2023-10-19T07:44:38;13.80;58.20
80931;DHT22;70388;42.698;23.324;2023-10-19T07:47:04;13.70;58.90
80931;DHT22;70388;42.698;23.324;2023-10-19T07:49:33;13.80;58.40
80931;DHT22;70388;42.698;23.324;2023-10-19T07:51:59;13.90;58.20
80931;DHT22;70388;42.698;23.324;2023-10-19T07:54:25;14.60;56.40
80931;DHT22;70388;42.698;23.324;2023-10-19T07:56:54;15.50;53.40
80931;DHT22;70388;42.698;23.324;2023-10-19T07:59:20;16.60;50.70
80931;DHT22;70388;42.698;23.324;2023-10-19T08:01:45;17.20;48.30
80931;DHT22;70388;42.698;23.324;2023-10-19T08:04:11;17.30;48.10
80931;DHT22;70388;42.698;23.324;2023-10-19T08:06:37;17.80;46.30
80931;DHT22;70388;42.698;23.324;2023-10-19T08:09:03;18.60;44.50
80931;DHT22;70388;42.698;23.324;2023-10-19T08:11:30;19.60;42.00
80931;DHT22;70388;42.698;23.324;2023-10-19T08:13:56;20.80;39.50
80931;DHT22;70388;42.698;23.324;2023-10-19T08:16:22;21.60;37.50
80931;DHT22;70388;42.698;23.324;2023-10-19T08:18:49;22.40;36.00
80931;DHT22;70388;42.698;23.324;2023-10-19T08:21:15;23.30;34.30
80931;DHT22;70388;42.698;23.324;2023-10-19T08:23:41;23.70;33.00
80931;DHT22;70388;42.698;23.324;2023-10-19T08:26:08;24.20;32.10
80931;DHT22;70388;42.698;23.324;2023-10-19T08:28:34;24.70;31.00
80931;DHT22;70388;42.698;23.324;2023-10-19T08:30:59;24.80;30.20
80931;DHT22;70388;42.698;23.324;2023-10-19T08:33:28;25.30;29.70
80931;DHT22;70388;42.698;23.324;2023-10-19T08:35:55;25.60;29.10
80931;DHT22;70388;42.698;23.324;2023-10-19T08:38:22;25.80;28.80
80931;DHT22;70388;42.698;23.324;2023-10-19T08:40:51;26.30;29.00
80931;DHT22;70388;42.698;23.324;2023-10-19T08:43:18;26.60;28.00
80931;DHT22;70388;42.698;23.324;2023-10-19T08:45:45;26.70;27.50
80931;DHT22;70388;42.698;23.324;2023-10-19T08:48:11;26.80;27.50
80931;DHT22;70388;42.698;23.324;2023-10-19T08:50:37;26.80;27.20
80931;DHT22;70388;42.698;23.324;2023-10-19T08:53:06;26.80;27.10
80931;DHT22;70388;42.698;23.324;2023-10-19T08:55:34;26.70;27.20
80931;DHT22;70388;42.698;23.324;2023-10-19T08:58:03;26.40;27.40
80931;DHT22;70388;42.698;23.324;2023-10-19T09:00:46;25.70;27.90
80931;DHT22;70388;42.698;23.324;2023-10-19T09:03:13;25.00;28.50
80931;DHT22;70388;42.698;23.324;2023-10-19T09:05:40;24.40;29.80
80931;DHT22;70388;42.698;23.324;2023-10-19T09:08:06;24.40;30.00
80931;DHT22;70388;42.698;23.324;2023-10-19T09:10:32;25.40;28.80
80931;DHT22;70388;42.698;23.324;2023-10-19T09:13:02;25.80;28.50
80931;DHT22;70388;42.698;23.324;2023-10-19T09:15:29;25.60;28.40
80931;DHT22;70388;42.698;23.324;2023-10-19T09:17:58;25.40;28.70
80931;DHT22;70388;42.698;23.324;2023-10-19T09:20:24;24.70;29.60
80931;DHT22;70388;42.698;23.324;2023-10-19T09:22:56;23.00;32.70
80931;DHT22;70388;42.698;23.324;2023-10-19T09:25:27;23.10;32.90
80931;DHT22;70388;42.698;23.324;2023-10-19T09:27:53;23.90;31.70
80931;DHT22;70388;42.698;23.324;2023-10-19T09:30:19;24.50;30.20
80931;DHT22;70388;42.698;23.324;2023-10-19T09:32:47;23.40;31.60
80931;DHT22;70388;42.698;23.324;2023-10-19T09:35:17;22.20;35.10
80931;DHT22;70388;42.698;23.324;2023-10-19T09:37:45;22.30;34.80
80931;DHT22;70388;42.698;23.324;2023-10-19T09:40:11;22.50;34.30
80931;DHT22;70388;42.698;23.324;2023-10-19T09:42:43;23.30;33.10
80931;DHT22;70388;42.698;23.324;2023-10-19T09:45:12;23.60;32.30
80931;DHT22;70388;42.698;23.324;2023-10-19T09:47:51;23.00;33.30
80931;DHT22;70388;42.698;23.324;2023-10-19T09:50:19;22.50;34.10
80931;DHT22;70388;42.698;23.324;2023-10-19T09:52:45;22.20;35.00
80931;DHT22;70388;42.698;23.324;2023-10-19T09:55:24;21.70;36.10
80931;DHT22;70388;42.698;23.324;2023-10-19T09:58:02;20.40;38.90
80931;DHT22;70388;42.698;23.324;2023-10-19T10:00:29;20.00;40.00
80931;DHT22;70388;42.698;23.324;2023-10-19T10:03:00;20.10;39.90
80931;DHT22;70388;42.698;23.324;2023-10-19T10:05:46;19.80;40.50
80931;DHT22;70388;42.698;23.324;2023-10-19T10:10:49;19.40;41.30
80931;DHT22;70388;42.698;23.324;2023-10-19T10:15:51;19.50;41.70
80931;DHT22;70388;42.698;23.324;2023-10-19T10:18:17;19.50;41.50
80931;DHT22;70388;42.698;23.324;2023-10-19T10:20:46;19.70;41.50
80931;DHT22;70388;42.698;23.324;2023-10-19T10:23:23;19.70;41.30
80931;DHT22;70388;42.698;23.324;2023-10-19T10:25:58;19.60;41.30
80931;DHT22;70388;42.698;23.324;2023-10-19T10:28:24;19.40;42.10
80931;DHT22;70388;42.698;23.324;2023-10-19T10:31:22;19.30;42.70
80931;DHT22;70388;42.698;23.324;2023-10-19T10:33:53;19.20;42.80
80931;DHT22;70388;42.698;23.324;2023-10-19T10:36:22;19.20;42.90
80931;DHT22;70388;42.698;23.324;2023-10-19T10:38:51;19.20;42.90
80931;DHT22;70388;42.698;23.324;2023-10-19T10:41:21;19.20;43.20
80931;DHT22;70388;42.698;23.324;2023-10-19T10:43:55;19.00;43.60
80931;DHT22;70388;42.698;23.324;2023-10-19T10:46:23;18.90;43.80
80931;DHT22;70388;42.698;23.324;2023-10-19T10:48:49;18.50;44.70
80931;DHT22;70388;42.698;23.324;2023-10-19T10:51:22;18.10;45.90
80931;DHT22;70388;42.698;23.324;2023-10-19T10:53:50;18.20;45.80
80931;DHT22;70388;42.698;23.324;2023-10-19T10:56:17;17.90;46.20
80931;DHT22;70388;42.698;23.324;2023-10-19T10:58:43;17.70;46.80
80931;DHT22;70388;42.698;23.324;2023-10-19T11:01:10;17.60;47.50
80931;DHT22;70388;42.698;23.324;2023-10-19T11:03:37;17.50;47.90
80931;DHT22;70388;42.698;23.324;2023-10-19T11:06:12;17.30;48.40
80931;DHT22;70388;42.698;23.324;2023-10-19T11:08:38;17.20;49.10
80931;DHT22;70388;42.698;23.324;2023-10-19T11:11:08;17.40;48.80
80931;DHT22;70388;42.698;23.324;2023-10-19T11:13:39;17.30;49.20
80931;DHT22;70388;42.698;23.324;2023-10-19T11:16:08;17.60;48.50
80931;DHT22;70388;42.698;23.324;2023-10-19T11:18:36;17.20;50.10
80931;DHT22;70388;42.698;23.324;2023-10-19T11:21:10;17.00;51.00
80931;DHT22;70388;42.698;23.324;2023-10-19T11:23:43;16.90;50.70
80931;DHT22;70388;42.698;23.324;2023-10-19T11:26:13;17.10;50.30
80931;DHT22;70388;42.698;23.324;2023-10-19T11:28:40;17.40;50.10
80931;DHT22;70388;42.698;23.324;2023-10-19T11:31:16;17.50;49.50
80931;DHT22;70388;42.698;23.324;2023-10-19T11:33:44;17.50;49.60
80931;DHT22;70388;42.698;23.324;2023-10-19T11:36:11;17.40;50.10
80931;DHT22;70388;42.698;23.324;2023-10-19T11:38:45;17.60;49.40
80931;DHT22;70388;42.698;23.324;2023-10-19T11:41:11;17.90;48.70
80931;DHT22;70388;42.698;23.324;2023-10-19T11:43:39;17.90;48.70
80931;DHT22;70388;42.698;23.324;2023-10-19T11:46:06;17.30;50.10
80931;DHT22;70388;42.698;23.324;2023-10-19T11:48:33;17.20;50.70
80931;DHT22;70388;42.698;23.324;2023-10-19T11:51:00;17.30;50.90
80931;DHT22;70388;42.698;23.324;2023-10-19T11:53:33;17.40;50.70
80931;DHT22;70388;42.698;23.324;2023-10-19T11:56:04;17.60;50.20
80931;DHT22;70388;42.698;23.324;2023-10-19T11:58:39;17.70;49.80
80931;DHT22;70388;42.698;23.324;2023-10-19T12:01:09;17.60;49.90
80931;DHT22;70388;42.698;23.324;2023-10-19T12:03:41;17.80;49.40
80931;DHT22;70388;42.698;23.324;2023-10-19T12:06:08;17.90;48.90
80931;DHT22;70388;42.698;23.324;2023-10-19T12:08:35;17.90;48.50
80931;DHT22;70388;42.698;23.324;2023-10-19T12:11:02;17.90;49.30
80931;DHT22;70388;42.698;23.324;2023-10-19T12:13:29;17.80;49.40
80931;DHT22;70388;42.698;23.324;2023-10-19T12:15:56;17.80;49.50
80931;DHT22;70388;42.698;23.324;2023-10-19T12:18:24;18.00;48.90
80931;DHT22;70388;42.698;23.324;2023-10-19T12:20:51;18.00;48.60
80931;DHT22;70388;42.698;23.324;2023-10-19T12:23:22;18.10;48.60
80931;DHT22;70388;42.698;23.324;2023-10-19T12:25:49;18.10;48.10
80931;DHT22;70388;42.698;23.324;2023-10-19T12:28:15;18.10;48.20
80931;DHT22;70388;42.698;23.324;2023-10-19T12:30:42;18.10;48.10
80931;DHT22;70388;42.698;23.324;2023-10-19T12:33:08;17.90;48.60
80931;DHT22;70388;42.698;23.324;2023-10-19T12:35:43;18.00;48.70
80931;DHT22;70388;42.698;23.324;2023-10-19T12:38:19;17.90;49.00
80931;DHT22;70388;42.698;23.324;2023-10-19T12:40:49;17.90;49.10
80931;DHT22;70388;42.698;23.324;2023-10-19T12:43:16;17.90;49.30
80931;DHT22;70388;42.698;23.324;2023-10-19T12:45:48;17.80;49.10
80931;DHT22;70388;42.698;23.324;2023-10-19T12:48:21;17.90;49.20
80931;DHT22;70388;42.698;23.324;2023-10-19T12:50:47;17.90;48.90
80931;DHT22;70388;42.698;23.324;2023-10-19T12:53:13;17.90;48.80
80931;DHT22;70388;42.698;23.324;2023-10-19T12:55:39;17.90;49.10
80931;DHT22;70388;42.698;23.324;2023-10-19T12:58:06;17.90;49.10
80931;DHT22;70388;42.698;23.324;2023-10-19T13:00:35;17.90;49.10
80931;DHT22;70388;42.698;23.324;2023-10-19T13:03:05;18.00;49.10
80931;DHT22;70388;42.698;23.324;2023-10-19T13:05:37;18.00;48.80
80931;DHT22;70388;42.698;23.324;2023-10-19T13:08:08;18.00;48.60
80931;DHT22;70388;42.698;23.324;2023-10-19T13:10:35;18.10;48.40
80931;DHT22;70388;42.698;23.324;2023-10-19T13:13:03;18.10;48.40
80931;DHT22;70388;42.698;23.324;2023-10-19T13:15:32;18.00;48.60
80931;DHT22;70388;42.698;23.324;2023-10-19T13:17:58;17.90;48.90
80931;DHT22;70388;42.698;23.324;2023-10-19T13:20:25;17.90;48.80
80931;DHT22;70388;42.698;23.324;2023-10-19T13:22:52;18.00;48.80
80931;DHT22;70388;42.698;23.324;2023-10-19T13:25:18;18.10;48.50
80931;DHT22;70388;42.698;23.324;2023-10-19T13:27:44;18.30;48.10
80931;DHT22;70388;42.698;23.324;2023-10-19T13:30:11;18.50;48.60
80931;DHT22;70388;42.698;23.324;2023-10-19T13:32:37;18.50;47.30
80931;DHT22;70388;42.698;23.324;2023-10-19T13:35:04;18.60;47.30
80931;DHT22;70388;42.698;23.324;2023-10-19T13:37:30;18.50;47.20
80931;DHT22;70388;42.698;23.324;2023-10-19T13:39:57;18.50;47.30
80931;DHT22;70388;42.698;23.324;2023-10-19T13:42:23;18.40;47.10
80931;DHT22;70388;42.698;23.324;2023-10-19T13:44:49;18.30;47.50
80931;DHT22;70388;42.698;23.324;2023-10-19T13:47:15;18.30;47.80
80931;DHT22;70388;42.698;23.324;2023-10-19T13:49:41;18.30;47.90
80931;DHT22;70388;42.698;23.324;2023-10-19T13:52:07;18.30;47.80
80931;DHT22;70388;42.698;23.324;2023-10-19T13:54:36;18.50;47.70
80931;DHT22;70388;42.698;23.324;2023-10-19T13:57:03;18.60;47.20
80931;DHT22;70388;42.698;23.324;2023-10-19T13:59:29;18.80;46.40
80931;DHT22;70388;42.698;23.324;2023-10-19T14:01:55;18.90;46.30
80931;DHT22;70388;42.698;23.324;2023-10-19T14:04:21;18.80;46.50
80931;DHT22;70388;42.698;23.324;2023-10-19T14:06:46;19.00;46.20
80931;DHT22;70388;42.698;23.324;2023-10-19T14:09:15;19.00;46.20
80931;DHT22;70388;42.698;23.324;2023-10-19T14:11:43;18.90;46.30
80931;DHT22;70388;42.698;23.324;2023-10-19T14:14:10;19.00;46.40
80931;DHT22;70388;42.698;23.324;2023-10-19T14:16:37;19.30;45.90
80931;DHT22;70388;42.698;23.324;2023-10-19T14:19:04;19.40;45.60
80931;DHT22;70388;42.698;23.324;2023-10-19T14:21:30;19.50;45.50
80931;DHT22;70388;42.698;23.324;2023-10-19T14:23:57;19.70;45.20
80931;DHT22;70388;42.698;23.324;2023-10-19T14:26:23;19.70;44.50
80931;DHT22;70388;42.698;23.324;2023-10-19T14:28:49;19.60;45.30
80931;DHT22;70388;42.698;23.324;2023-10-19T14:31:15;19.40;45.30
80931;DHT22;70388;42.698;23.324;2023-10-19T14:33:42;19.30;45.60
80931;DHT22;70388;42.698;23.324;2023-10-19T14:36:09;19.20;45.90
80931;DHT22;70388;42.698;23.324;2023-10-19T14:38:34;19.40;45.60
80931;DHT22;70388;42.698;23.324;2023-10-19T14:41:02;19.70;44.90
80931;DHT22;70388;42.698;23.324;2023-10-19T14:43:28;19.80;44.40
80931;DHT22;70388;42.698;23.324;2023-10-19T14:45:56;20.00;43.50
80931;DHT22;70388;42.698;23.324;2023-10-19T14:48:23;20.10;43.60
80931;DHT22;70388;42.698;23.324;2023-10-19T14:50:49;20.00;43.80
80931;DHT22;70388;42.698;23.324;2023-10-19T14:53:17;19.80;44.00
80931;DHT22;70388;42.698;23.324;2023-10-19T14:55:43;19.70;44.10
80931;DHT22;70388;42.698;23.324;2023-10-19T14:58:11;19.70;44.40
80931;DHT22;70388;42.698;23.324;2023-10-19T15:00:37;19.70;44.50
80931;DHT22;70388;42.698;23.324;2023-10-19T15:03:07;19.70;44.40
80931;DHT22;70388;42.698;23.324;2023-10-19T15:05:34;19.60;44.30
80931;DHT22;70388;42.698;23.324;2023-10-19T15:08:03;19.60;44.50
80931;DHT22;70388;42.698;23.324;2023-10-19T15:10:33;19.50;44.70
80931;DHT22;70388;42.698;23.324;2023-10-19T15:12:59;19.40;45.00
80931;DHT22;70388;42.698;23.324;2023-10-19T15:15:29;19.30;45.10
80931;DHT22;70388;42.698;23.324;2023-10-19T15:17:55;19.20;45.30
80931;DHT22;70388;42.698;23.324;2023-10-19T15:20:25;19.20;45.60
80931;DHT22;70388;42.698;23.324;2023-10-19T15:22:51;19.20;45.70
80931;DHT22;70388;42.698;23.324;2023-10-19T15:25:18;19.10;45.90
80931;DHT22;70388;42.698;23.324;2023-10-19T15:27:46;19.10;46.30
80931;DHT22;70388;42.698;23.324;2023-10-19T15:30:14;19.00;46.30
80931;DHT22;70388;42.698;23.324;2023-10-19T15:32:41;18.90;46.60
80931;DHT22;70388;42.698;23.324;2023-10-19T15:35:12;18.80;46.80
80931;DHT22;70388;42.698;23.324;2023-10-19T15:37:39;18.80;47.10
80931;DHT22;70388;42.698;23.324;2023-10-19T15:40:05;18.80;47.20